Sunday, May 27, 2018, 11:47 AM EDT

KOXB, Ocean City Municipal Airport

Location: Berlin, MD, United States Lat: 38.317
Local Time: 11:47 AM EDT (15:47 GMT) Lon: -75.117
Time Zone: US/Eastern Elev: 13 ft

Show me the last for .
Show Decoded

2018-05-27 10:53 METAR KOXB 271453Z AUTO 25008KT 10SM FEW014 OVC029 24/23 A2995 RMK AO2 SLP142
                 60000 T02440233 55001 =
2018-05-27 10:48 METAR KOXB 271448Z AUTO 24008KT 10SM FEW014 OVC029 25/23 A2995 RMK AO2 =
2018-05-27 10:40 METAR KOXB 271440Z AUTO 24008KT 10SM FEW016 SCT025 OVC031 24/23 A2995 RMK AO2
                 T02440233 =
2018-05-27 10:16 METAR KOXB 271416Z AUTO 23008KT 10SM FEW011 BKN026 OVC030 24/23 A2995 RMK AO2
                 T02390233 =
2018-05-27 10:02 METAR KOXB 271402Z AUTO 18004KT 10SM BKN013 BKN018 OVC023 22/22 A2995 RMK AO2
                 T02170217 =
2018-05-27 09:53 METAR KOXB 271353Z AUTO 18004KT 10SM OVC015 22/21 A2995 RMK AO2 SLP143 T02170211
                 =
2018-05-27 08:53 METAR KOXB 271253Z AUTO 23007KT 10SM BKN014 OVC019 23/22 A2995 RMK AO2 RAE1157
                 SLP142 P0000 T02330222 =
2018-05-27 08:26 METAR KOXB 271226Z AUTO 23010KT 10SM BKN019 23/22 A2995 RMK AO2 RAE1157 P0000
                 T02330222 =
2018-05-27 07:53 METAR KOXB 271153Z AUTO 23006KT 10SM -RA FEW060 BKN110 23/22 A2994 RMK AO2 RAB47
                 SLP137 P0000 60024 70029 T02280222 10228 20200 53005 =
2018-05-27 06:53 METAR KOXB 271053Z AUTO 22007KT 10SM CLR 23/22 A2992 RMK AO2 RAB15E27 SLP131
                 P0000 T02280222 =
2018-05-27 06:28 METAR KOXB 271028Z AUTO 22007KT 9SM SCT018 SCT110 22/22 A2992 RMK AO2 RAB15E27
                 P0000 T02170217 =
2018-05-27 05:53 METAR KOXB 270953Z AUTO VRB04KT 10SM OVC019 21/21 A2993 RMK AO2 LTG DSNT SE
                 SLP135 T02060206 =
2018-05-27 05:43 METAR KOXB 270943Z AUTO 22007KT 10SM BKN019 21/21 A2993 RMK AO2 LTG DSNT S AND
                 NW T02060206 =
2018-05-27 04:56 METAR KOXB 270856Z AUTO 21006KT 10SM FEW005 SCT028 BKN042 21/21 A2992 RMK AO2
                 T02060206 =
2018-05-27 04:53 METAR KOXB 270853Z AUTO 21005KT 10SM BKN028 BKN042 20/20 A2992 RMK AO2 SLP132
                 60024 T02000200 56001 =
2018-05-27 03:53 METAR KOXB 270753Z AUTO 21005KT 10SM FEW110 21/21 A2991 RMK AO2 LTG DSNT SE
                 RAE50 SLP128 P0009 T02110211 =
2018-05-27 03:07 METAR KOXB 270707Z AUTO 22009KT 5SM RA BR SCT035 BKN095 OVC110 22/21 A2992 RMK
                 AO2 LTG DSNT S P0004 T02170211 =
2018-05-27 02:53 METAR KOXB 270653Z AUTO 22015G31KT 2 1/2SM +RA BR SCT034 BKN047 OVC060 22/21
                 A2992 RMK AO2 PK WND 23031/0648 LTG DSNT S AND NW RAE31B49 TSE03 SLP133 P0015
                 T02170206 =
2018-05-27 02:08 METAR KOXB 270608Z AUTO 00000KT 7SM RA BKN100 OVC120 21/21 A2991 RMK AO2 LTG
                 DSNT NW TSE03 P0003 T02110211 =
2018-05-27 01:53 METAR KOXB 270553Z AUTO 24004KT 6SM TSRA BR FEW070 BKN095 OVC120 22/21 A2993 RMK
                 AO2 PK WND 23027/0525 LTG DSNT NW RAB27 TSB24 SLP133 P0005 60005 T02170206 10244
                 20217 53003 =
2018-05-27 01:30 METAR KOXB 270530Z AUTO 23016G27KT 9SM -TSRA FEW041 SCT049 BKN070 23/21 A2994
                 RMK AO2 PK WND 23027/0525 LTG DSNT SW RAB27 TSB24 P0000 T02280211 =
2018-05-27 01:15 METAR KOXB 270515Z AUTO 23006KT 10SM VCTS FEW050 24/23 A2992 RMK AO2 LTG DSNT S
                 AND SW T02390233 =
2018-05-27 00:53 METAR KOXB 270453Z AUTO 21006KT 10SM CLR 23/23 A2992 RMK AO2 LTG DSNT S-W SLP130
                 T02280228 403060217 =
2018-05-26 23:53 METAR KOXB 270353Z AUTO 21004KT 10SM CLR 23/23 A2992 RMK AO2 SLP131 T02330228 =
2018-05-26 22:53 METAR KOXB 270253Z AUTO 20004KT 10SM CLR 23/22 A2992 RMK AO2 SLP130 T02280222
                 51012 =
2018-05-26 21:53 METAR KOXB 270153Z AUTO 21005KT 10SM CLR 24/23 A2991 RMK AO2 SLP127 T02390228 =
2018-05-26 20:53 METAR KOXB 270053Z AUTO 19005KT 10SM CLR 23/22 A2989 RMK AO2 SLP121 T02280222 =
2018-05-26 19:53 METAR KOXB 262353Z AUTO 17004KT 10SM CLR 23/22 A2988 RMK AO2 SLP118 T02330217
                 10278 20233 53007 =
2018-05-26 18:53 METAR KOXB 262253Z AUTO 22010G16KT 10SM CLR 25/22 A2986 RMK AO2 SLP112 T02500222
                 =
2018-05-26 17:53 METAR KOXB 262153Z AUTO 20008KT 10SM CLR 24/22 A2986 RMK AO2 SLP112 T02390217 =
2018-05-26 16:53 METAR KOXB 262053Z AUTO 19005G14KT 10SM FEW041 25/22 A2986 RMK AO2 SLP111
                 T02500222 55004 =
2018-05-26 15:53 METAR KOXB 261953Z AUTO 19006KT 10SM FEW040 SCT049 26/22 A2986 RMK AO2 SLP110
                 T02610222 =
2018-05-26 14:53 METAR KOXB 261853Z AUTO 19009G15KT 10SM SCT040 26/22 A2986 RMK AO2 SLP112
                 T02610222 =
2018-05-26 13:53 METAR KOXB 261753Z AUTO 20008G16KT 10SM CLR 27/23 A2987 RMK AO2 SLP116 T02720233
                 10306 20239 58010 =
2018-05-26 12:53 METAR KOXB 261653Z AUTO 19008G18KT 160V240 10SM CLR 29/21 A2988 RMK AO2 SLP119
                 T02940211 =
2018-05-26 11:53 METAR KOXB 261553Z AUTO 25014KT 10SM CLR 30/21 A2989 RMK AO2 SLP122 T03000211 =

Support USWX by starting your Amazon purchase here.